sensor_id;sensor_type;location;lat;lon;timestamp;temperature;humidity
23379;DHT22;11862;46.070;13.222;2022-11-21T00:00:44;7.10;99.90
23379;DHT22;11862;46.070;13.222;2022-11-21T00:03:11;7.20;99.90
23379;DHT22;11862;46.070;13.222;2022-11-21T00:05:47;7.30;99.90
23379;DHT22;11862;46.070;13.222;2022-11-21T00:08:18;7.20;99.90
23379;DHT22;11862;46.070;13.222;2022-11-21T00:10:45;7.20;99.90
23379;DHT22;11862;46.070;13.222;2022-11-21T00:13:13;7.10;99.90
23379;DHT22;11862;46.070;13.222;2022-11-21T00:15:39;7.10;99.90
23379;DHT22;11862;46.070;13.222;2022-11-21T00:18:05;7.10;99.90
23379;DHT22;11862;46.070;13.222;2022-11-21T00:20:31;7.10;99.90
23379;DHT22;11862;46.070;13.222;2022-11-21T00:22:57;7.10;99.90
23379;DHT22;11862;46.070;13.222;2022-11-21T00:25:23;7.10;99.90
23379;DHT22;11862;46.070;13.222;2022-11-21T00:27:49;7.10;99.90
23379;DHT22;11862;46.070;13.222;2022-11-21T00:30:16;7.10;99.90
23379;DHT22;11862;46.070;13.222;2022-11-21T00:32:42;7.00;99.90
23379;DHT22;11862;46.070;13.222;2022-11-21T00:35:11;7.00;99.90
23379;DHT22;11862;46.070;13.222;2022-11-21T00:37:40;7.00;99.90
23379;DHT22;11862;46.070;13.222;2022-11-21T00:40:06;7.00;99.90
23379;DHT22;11862;46.070;13.222;2022-11-21T00:42:32;7.00;99.90
23379;DHT22;11862;46.070;13.222;2022-11-21T00:44:58;7.10;99.90
23379;DHT22;11862;46.070;13.222;2022-11-21T00:47:24;7.30;99.90
23379;DHT22;11862;46.070;13.222;2022-11-21T00:49:50;7.30;99.90
23379;DHT22;11862;46.070;13.222;2022-11-21T00:52:16;7.40;99.90
23379;DHT22;11862;46.070;13.222;2022-11-21T00:54:42;7.30;99.90
23379;DHT22;11862;46.070;13.222;2022-11-21T00:57:08;7.40;99.90
23379;DHT22;11862;46.070;13.222;2022-11-21T00:59:34;7.50;99.90
23379;DHT22;11862;46.070;13.222;2022-11-21T01:02:00;7.40;99.90
23379;DHT22;11862;46.070;13.222;2022-11-21T01:04:32;7.40;99.90
23379;DHT22;11862;46.070;13.222;2022-11-21T01:06:58;7.30;99.90
23379;DHT22;11862;46.070;13.222;2022-11-21T01:09:23;7.20;99.90
23379;DHT22;11862;46.070;13.222;2022-11-21T01:11:49;7.10;99.90
23379;DHT22;11862;46.070;13.222;2022-11-21T01:14:15;7.20;99.90
23379;DHT22;11862;46.070;13.222;2022-11-21T01:16:41;7.10;99.90
23379;DHT22;11862;46.070;13.222;2022-11-21T01:19:07;7.00;99.90
23379;DHT22;11862;46.070;13.222;2022-11-21T01:21:33;7.00;99.90
23379;DHT22;11862;46.070;13.222;2022-11-21T01:23:59;7.00;99.90
23379;DHT22;11862;46.070;13.222;2022-11-21T01:26:27;7.10;99.90
23379;DHT22;11862;46.070;13.222;2022-11-21T01:28:54;7.00;99.90
23379;DHT22;11862;46.070;13.222;2022-11-21T01:31:25;6.90;99.90
23379;DHT22;11862;46.070;13.222;2022-11-21T01:33:52;6.90;99.90
23379;DHT22;11862;46.070;13.222;2022-11-21T01:36:21;6.70;99.90
23379;DHT22;11862;46.070;13.222;2022-11-21T01:38:49;6.70;99.90
23379;DHT22;11862;46.070;13.222;2022-11-21T01:41:19;6.50;99.90
23379;DHT22;11862;46.070;13.222;2022-11-21T01:43:45;6.50;99.90
23379;DHT22;11862;46.070;13.222;2022-11-21T01:46:14;6.50;99.90
23379;DHT22;11862;46.070;13.222;2022-11-21T01:54:32;6.60;99.90
23379;DHT22;11862;46.070;13.222;2022-11-21T01:57:14;6.60;99.90
23379;DHT22;11862;46.070;13.222;2022-11-21T02:02:26;6.70;99.90
23379;DHT22;11862;46.070;13.222;2022-11-21T02:04:55;6.70;99.90
23379;DHT22;11862;46.070;13.222;2022-11-21T02:07:22;6.80;99.90
23379;DHT22;11862;46.070;13.222;2022-11-21T02:09:53;6.70;99.90
23379;DHT22;11862;46.070;13.222;2022-11-21T02:15:11;6.80;99.90
23379;DHT22;11862;46.070;13.222;2022-11-21T02:17:37;6.80;99.90
23379;DHT22;11862;46.070;13.222;2022-11-21T02:20:06;6.80;99.90
23379;DHT22;11862;46.070;13.222;2022-11-21T02:25:29;6.80;99.90
23379;DHT22;11862;46.070;13.222;2022-11-21T02:28:00;6.80;99.90
23379;DHT22;11862;46.070;13.222;2022-11-21T02:30:27;6.80;99.90
23379;DHT22;11862;46.070;13.222;2022-11-21T02:32:54;6.70;99.90
23379;DHT22;11862;46.070;13.222;2022-11-21T02:35:22;6.70;99.90
23379;DHT22;11862;46.070;13.222;2022-11-21T02:38:00;6.70;99.90
23379;DHT22;11862;46.070;13.222;2022-11-21T02:40:32;6.70;99.90
23379;DHT22;11862;46.070;13.222;2022-11-21T02:45:44;6.80;99.90
23379;DHT22;11862;46.070;13.222;2022-11-21T02:48:11;6.90;99.90
23379;DHT22;11862;46.070;13.222;2022-11-21T02:50:43;6.90;99.90
23379;DHT22;11862;46.070;13.222;2022-11-21T02:53:12;6.90;99.90
23379;DHT22;11862;46.070;13.222;2022-11-21T02:55:38;6.90;99.90
23379;DHT22;11862;46.070;13.222;2022-11-21T02:58:05;6.90;99.90
23379;DHT22;11862;46.070;13.222;2022-11-21T03:00:32;6.80;99.90
23379;DHT22;11862;46.070;13.222;2022-11-21T03:02:58;6.90;99.90
23379;DHT22;11862;46.070;13.222;2022-11-21T03:05:24;6.90;99.90
23379;DHT22;11862;46.070;13.222;2022-11-21T03:07:50;6.90;99.90
23379;DHT22;11862;46.070;13.222;2022-11-21T03:10:16;7.00;99.90
23379;DHT22;11862;46.070;13.222;2022-11-21T03:12:42;7.00;99.90
23379;DHT22;11862;46.070;13.222;2022-11-21T03:15:10;7.10;99.90
23379;DHT22;11862;46.070;13.222;2022-11-21T03:17:37;7.10;99.90
23379;DHT22;11862;46.070;13.222;2022-11-21T03:20:03;7.10;99.90
23379;DHT22;11862;46.070;13.222;2022-11-21T03:22:29;7.10;99.90
23379;DHT22;11862;46.070;13.222;2022-11-21T03:24:55;7.10;99.90
23379;DHT22;11862;46.070;13.222;2022-11-21T03:27:21;7.00;99.90
23379;DHT22;11862;46.070;13.222;2022-11-21T03:29:47;7.00;99.90
23379;DHT22;11862;46.070;13.222;2022-11-21T03:32:12;7.00;99.90
23379;DHT22;11862;46.070;13.222;2022-11-21T03:34:38;7.00;99.90
23379;DHT22;11862;46.070;13.222;2022-11-21T03:37:04;7.00;99.90
23379;DHT22;11862;46.070;13.222;2022-11-21T03:39:30;7.00;99.90
23379;DHT22;11862;46.070;13.222;2022-11-21T03:41:56;6.90;99.90
23379;DHT22;11862;46.070;13.222;2022-11-21T03:44:22;6.90;99.90
23379;DHT22;11862;46.070;13.222;2022-11-21T03:46:48;6.90;99.90
23379;DHT22;11862;46.070;13.222;2022-11-21T03:49:14;6.90;99.90
23379;DHT22;11862;46.070;13.222;2022-11-21T03:51:42;6.90;99.90
23379;DHT22;11862;46.070;13.222;2022-11-21T03:54:08;7.00;99.90
23379;DHT22;11862;46.070;13.222;2022-11-21T03:56:35;7.00;99.90
23379;DHT22;11862;46.070;13.222;2022-11-21T03:59:02;7.10;99.90
23379;DHT22;11862;46.070;13.222;2022-11-21T04:01:31;7.30;99.90
23379;DHT22;11862;46.070;13.222;2022-11-21T04:03:57;7.40;99.90
23379;DHT22;11862;46.070;13.222;2022-11-21T04:06:24;7.40;99.90
23379;DHT22;11862;46.070;13.222;2022-11-21T04:08:50;7.50;99.90
23379;DHT22;11862;46.070;13.222;2022-11-21T04:11:16;7.50;99.90
23379;DHT22;11862;46.070;13.222;2022-11-21T04:13:42;7.40;99.90
23379;DHT22;11862;46.070;13.222;2022-11-21T04:16:08;7.30;99.90
23379;DHT22;11862;46.070;13.222;2022-11-21T04:18:34;7.30;99.90
23379;DHT22;11862;46.070;13.222;2022-11-21T04:21:02;7.30;99.90
23379;DHT22;11862;46.070;13.222;2022-11-21T04:23:29;7.30;99.90
23379;DHT22;11862;46.070;13.222;2022-11-21T04:25:55;7.30;99.90
23379;DHT22;11862;46.070;13.222;2022-11-21T04:28:21;7.20;99.90
23379;DHT22;11862;46.070;13.222;2022-11-21T04:30:47;7.10;99.90
23379;DHT22;11862;46.070;13.222;2022-11-21T04:33:14;7.20;99.90
23379;DHT22;11862;46.070;13.222;2022-11-21T04:35:42;7.10;99.90
23379;DHT22;11862;46.070;13.222;2022-11-21T04:38:08;7.00;99.90
23379;DHT22;11862;46.070;13.222;2022-11-21T04:40:34;7.00;99.90
23379;DHT22;11862;46.070;13.222;2022-11-21T04:43:01;7.00;99.90
23379;DHT22;11862;46.070;13.222;2022-11-21T04:45:26;7.00;99.90
23379;DHT22;11862;46.070;13.222;2022-11-21T04:47:52;6.90;99.90
23379;DHT22;11862;46.070;13.222;2022-11-21T04:50:18;6.80;99.90
23379;DHT22;11862;46.070;13.222;2022-11-21T04:52:55;6.80;99.90
23379;DHT22;11862;46.070;13.222;2022-11-21T04:55:23;6.80;99.90
23379;DHT22;11862;46.070;13.222;2022-11-21T04:57:50;6.80;99.90
23379;DHT22;11862;46.070;13.222;2022-11-21T05:00:17;6.80;99.90
23379;DHT22;11862;46.070;13.222;2022-11-21T05:02:43;6.80;99.90
23379;DHT22;11862;46.070;13.222;2022-11-21T05:05:09;6.70;99.90
23379;DHT22;11862;46.070;13.222;2022-11-21T05:07:35;6.80;99.90
23379;DHT22;11862;46.070;13.222;2022-11-21T05:10:02;6.80;99.90
23379;DHT22;11862;46.070;13.222;2022-11-21T05:12:28;6.80;99.90
23379;DHT22;11862;46.070;13.222;2022-11-21T05:15:19;6.80;99.90
23379;DHT22;11862;46.070;13.222;2022-11-21T05:17:45;6.80;99.90
23379;DHT22;11862;46.070;13.222;2022-11-21T05:20:11;6.70;99.90
23379;DHT22;11862;46.070;13.222;2022-11-21T05:22:38;6.60;99.90
23379;DHT22;11862;46.070;13.222;2022-11-21T05:25:06;6.60;99.90
23379;DHT22;11862;46.070;13.222;2022-11-21T05:27:32;6.50;99.90
23379;DHT22;11862;46.070;13.222;2022-11-21T05:29:58;6.50;99.90
23379;DHT22;11862;46.070;13.222;2022-11-21T05:32:26;6.60;99.90
23379;DHT22;11862;46.070;13.222;2022-11-21T05:34:52;6.60;99.90
23379;DHT22;11862;46.070;13.222;2022-11-21T05:37:18;6.60;99.90
23379;DHT22;11862;46.070;13.222;2022-11-21T05:39:46;6.50;99.90
23379;DHT22;11862;46.070;13.222;2022-11-21T05:42:12;6.30;99.90
23379;DHT22;11862;46.070;13.222;2022-11-21T05:44:37;6.30;99.90
23379;DHT22;11862;46.070;13.222;2022-11-21T05:47:06;6.30;99.90
23379;DHT22;11862;46.070;13.222;2022-11-21T05:49:32;6.30;99.90
23379;DHT22;11862;46.070;13.222;2022-11-21T05:52:00;6.20;99.90
23379;DHT22;11862;46.070;13.222;2022-11-21T05:54:26;6.30;99.90
23379;DHT22;11862;46.070;13.222;2022-11-21T05:56:52;6.20;99.90
23379;DHT22;11862;46.070;13.222;2022-11-21T05:59:18;6.20;99.90
23379;DHT22;11862;46.070;13.222;2022-11-21T06:01:44;6.20;99.90
23379;DHT22;11862;46.070;13.222;2022-11-21T06:04:29;6.20;99.90
23379;DHT22;11862;46.070;13.222;2022-11-21T06:06:54;6.30;99.90
23379;DHT22;11862;46.070;13.222;2022-11-21T06:09:20;6.20;99.90
23379;DHT22;11862;46.070;13.222;2022-11-21T06:11:47;6.30;99.90
23379;DHT22;11862;46.070;13.222;2022-11-21T06:14:12;6.30;99.90
23379;DHT22;11862;46.070;13.222;2022-11-21T06:16:41;6.20;99.90
23379;DHT22;11862;46.070;13.222;2022-11-21T06:19:10;6.30;99.90
23379;DHT22;11862;46.070;13.222;2022-11-21T06:21:35;6.20;99.90
23379;DHT22;11862;46.070;13.222;2022-11-21T06:24:02;6.10;99.90
23379;DHT22;11862;46.070;13.222;2022-11-21T06:26:27;6.20;99.90
23379;DHT22;11862;46.070;13.222;2022-11-21T06:28:53;6.20;99.90
23379;DHT22;11862;46.070;13.222;2022-11-21T06:31:24;6.30;99.90
23379;DHT22;11862;46.070;13.222;2022-11-21T06:33:52;6.30;99.90
23379;DHT22;11862;46.070;13.222;2022-11-21T06:36:19;6.20;99.90
23379;DHT22;11862;46.070;13.222;2022-11-21T06:38:45;6.20;99.90
23379;DHT22;11862;46.070;13.222;2022-11-21T06:41:19;6.20;99.90
23379;DHT22;11862;46.070;13.222;2022-11-21T06:43:48;6.20;99.90
23379;DHT22;11862;46.070;13.222;2022-11-21T06:46:38;6.20;99.90
23379;DHT22;11862;46.070;13.222;2022-11-21T06:52:45;6.30;99.90
23379;DHT22;11862;46.070;13.222;2022-11-21T06:55:24;6.30;99.90
23379;DHT22;11862;46.070;13.222;2022-11-21T06:58:07;6.30;99.90
23379;DHT22;11862;46.070;13.222;2022-11-21T07:01:03;6.50;99.90
23379;DHT22;11862;46.070;13.222;2022-11-21T07:03:37;6.60;99.90
23379;DHT22;11862;46.070;13.222;2022-11-21T07:06:08;6.80;99.90
23379;DHT22;11862;46.070;13.222;2022-11-21T07:08:36;7.20;99.90
23379;DHT22;11862;46.070;13.222;2022-11-21T07:11:07;7.60;99.90
23379;DHT22;11862;46.070;13.222;2022-11-21T07:13:35;8.60;99.90
23379;DHT22;11862;46.070;13.222;2022-11-21T07:16:09;9.50;99.90
23379;DHT22;11862;46.070;13.222;2022-11-21T07:18:41;10.30;99.90
23379;DHT22;11862;46.070;13.222;2022-11-21T07:21:10;10.80;99.90
23379;DHT22;11862;46.070;13.222;2022-11-21T07:23:43;11.50;99.90
23379;DHT22;11862;46.070;13.222;2022-11-21T07:26:13;12.10;99.90
23379;DHT22;11862;46.070;13.222;2022-11-21T07:28:51;12.20;99.90
23379;DHT22;11862;46.070;13.222;2022-11-21T07:31:24;12.20;99.90
23379;DHT22;11862;46.070;13.222;2022-11-21T07:33:50;12.20;99.90
23379;DHT22;11862;46.070;13.222;2022-11-21T07:36:20;12.60;99.90
23379;DHT22;11862;46.070;13.222;2022-11-21T07:38:46;13.00;99.90
23379;DHT22;11862;46.070;13.222;2022-11-21T07:41:16;13.50;99.90
23379;DHT22;11862;46.070;13.222;2022-11-21T07:43:54;13.60;99.90
23379;DHT22;11862;46.070;13.222;2022-11-21T07:46:36;13.40;99.90
23379;DHT22;11862;46.070;13.222;2022-11-21T07:49:03;14.00;99.90
23379;DHT22;11862;46.070;13.222;2022-11-21T07:51:30;13.70;99.90
23379;DHT22;11862;46.070;13.222;2022-11-21T07:54:01;14.00;99.90
23379;DHT22;11862;46.070;13.222;2022-11-21T07:56:30;14.40;99.90
23379;DHT22;11862;46.070;13.222;2022-11-21T07:59:00;15.00;99.90
23379;DHT22;11862;46.070;13.222;2022-11-21T08:01:34;15.40;99.90
23379;DHT22;11862;46.070;13.222;2022-11-21T08:04:05;15.90;99.90
23379;DHT22;11862;46.070;13.222;2022-11-21T08:06:34;15.80;99.90
23379;DHT22;11862;46.070;13.222;2022-11-21T08:09:00;16.00;99.90
23379;DHT22;11862;46.070;13.222;2022-11-21T08:11:27;16.20;99.90
23379;DHT22;11862;46.070;13.222;2022-11-21T08:13:57;16.50;99.90
23379;DHT22;11862;46.070;13.222;2022-11-21T08:16:27;15.20;99.90
23379;DHT22;11862;46.070;13.222;2022-11-21T08:19:01;15.50;99.90
23379;DHT22;11862;46.070;13.222;2022-11-21T08:21:35;15.60;99.90
23379;DHT22;11862;46.070;13.222;2022-11-21T08:24:03;15.60;99.90
23379;DHT22;11862;46.070;13.222;2022-11-21T08:26:35;16.50;99.90
23379;DHT22;11862;46.070;13.222;2022-11-21T08:29:02;16.40;99.90
23379;DHT22;11862;46.070;13.222;2022-11-21T08:31:35;15.40;99.90
23379;DHT22;11862;46.070;13.222;2022-11-21T08:34:04;14.40;99.90
23379;DHT22;11862;46.070;13.222;2022-11-21T08:36:34;15.20;99.90
23379;DHT22;11862;46.070;13.222;2022-11-21T08:39:09;15.40;99.90
23379;DHT22;11862;46.070;13.222;2022-11-21T08:41:38;15.20;99.90
23379;DHT22;11862;46.070;13.222;2022-11-21T08:44:24;15.50;99.90
23379;DHT22;11862;46.070;13.222;2022-11-21T08:46:54;15.70;99.90
23379;DHT22;11862;46.070;13.222;2022-11-21T08:49:22;15.00;99.90
23379;DHT22;11862;46.070;13.222;2022-11-21T08:52:03;15.30;99.90
23379;DHT22;11862;46.070;13.222;2022-11-21T08:54:38;15.80;99.90
23379;DHT22;11862;46.070;13.222;2022-11-21T08:57:07;16.40;99.90
23379;DHT22;11862;46.070;13.222;2022-11-21T08:59:37;17.00;99.90
23379;DHT22;11862;46.070;13.222;2022-11-21T09:02:17;16.80;99.90
23379;DHT22;11862;46.070;13.222;2022-11-21T09:04:57;16.20;99.90
23379;DHT22;11862;46.070;13.222;2022-11-21T09:07:25;15.30;99.90
23379;DHT22;11862;46.070;13.222;2022-11-21T09:09:52;15.70;99.90
23379;DHT22;11862;46.070;13.222;2022-11-21T09:12:22;16.10;99.90
23379;DHT22;11862;46.070;13.222;2022-11-21T09:14:58;16.90;99.90
23379;DHT22;11862;46.070;13.222;2022-11-21T09:17:47;15.70;99.90
23379;DHT22;11862;46.070;13.222;2022-11-21T09:20:44;16.90;99.90
23379;DHT22;11862;46.070;13.222;2022-11-21T09:23:24;17.50;99.90
23379;DHT22;11862;46.070;13.222;2022-11-21T09:25:51;16.60;99.90
23379;DHT22;11862;46.070;13.222;2022-11-21T09:28:21;17.10;99.90
23379;DHT22;11862;46.070;13.222;2022-11-21T09:31:07;17.10;99.90
23379;DHT22;11862;46.070;13.222;2022-11-21T09:33:39;15.60;99.90
23379;DHT22;11862;46.070;13.222;2022-11-21T09:36:29;15.30;99.90
23379;DHT22;11862;46.070;13.222;2022-11-21T09:39:25;16.40;99.90
23379;DHT22;11862;46.070;13.222;2022-11-21T09:53:24;17.10;99.90
23379;DHT22;11862;46.070;13.222;2022-11-21T09:56:36;17.40;99.90
23379;DHT22;11862;46.070;13.222;2022-11-21T09:59:43;17.00;99.90
23379;DHT22;11862;46.070;13.222;2022-11-21T10:02:22;17.30;99.90
23379;DHT22;11862;46.070;13.222;2022-11-21T10:04:56;17.30;99.90
23379;DHT22;11862;46.070;13.222;2022-11-21T10:07:37;17.20;99.90
23379;DHT22;11862;46.070;13.222;2022-11-21T10:10:41;17.30;99.90
23379;DHT22;11862;46.070;13.222;2022-11-21T10:13:24;17.50;99.90
23379;DHT22;11862;46.070;13.222;2022-11-21T10:16:14;17.00;99.90
23379;DHT22;11862;46.070;13.222;2022-11-21T10:19:13;16.70;99.90
23379;DHT22;11862;46.070;13.222;2022-11-21T10:22:06;16.60;99.90
23379;DHT22;11862;46.070;13.222;2022-11-21T10:25:44;17.20;99.90
23379;DHT22;11862;46.070;13.222;2022-11-21T10:28:33;17.20;99.90
23379;DHT22;11862;46.070;13.222;2022-11-21T10:31:09;17.40;99.90
23379;DHT22;11862;46.070;13.222;2022-11-21T10:33:37;17.60;99.90
23379;DHT22;11862;46.070;13.222;2022-11-21T10:38:43;16.90;99.90
23379;DHT22;11862;46.070;13.222;2022-11-21T10:41:41;17.30;99.90
23379;DHT22;11862;46.070;13.222;2022-11-21T10:44:25;17.10;99.90
23379;DHT22;11862;46.070;13.222;2022-11-21T10:47:27;16.90;99.90
23379;DHT22;11862;46.070;13.222;2022-11-21T10:56:08;16.40;99.90
23379;DHT22;11862;46.070;13.222;2022-11-21T10:58:47;16.60;99.90
23379;DHT22;11862;46.070;13.222;2022-11-21T11:01:38;16.40;99.90
23379;DHT22;11862;46.070;13.222;2022-11-21T11:06:39;16.30;99.90
23379;DHT22;11862;46.070;13.222;2022-11-21T11:09:22;16.40;99.90
23379;DHT22;11862;46.070;13.222;2022-11-21T11:11:48;16.10;99.90
23379;DHT22;11862;46.070;13.222;2022-11-21T11:14:15;15.80;99.90
23379;DHT22;11862;46.070;13.222;2022-11-21T11:16:57;15.80;99.90
23379;DHT22;11862;46.070;13.222;2022-11-21T11:19:33;15.60;99.90
23379;DHT22;11862;46.070;13.222;2022-11-21T11:27:32;15.60;99.90
23379;DHT22;11862;46.070;13.222;2022-11-21T11:30:15;15.60;99.90
23379;DHT22;11862;46.070;13.222;2022-11-21T11:32:46;15.60;99.90
23379;DHT22;11862;46.070;13.222;2022-11-21T11:37:57;15.40;99.90
23379;DHT22;11862;46.070;13.222;2022-11-21T11:40:36;15.30;99.90
23379;DHT22;11862;46.070;13.222;2022-11-21T11:49:46;14.90;99.90
23379;DHT22;11862;46.070;13.222;2022-11-21T11:55:42;15.00;99.90
23379;DHT22;11862;46.070;13.222;2022-11-21T12:07:50;14.60;99.90
23379;DHT22;11862;46.070;13.222;2022-11-21T12:10:51;14.60;99.90
23379;DHT22;11862;46.070;13.222;2022-11-21T12:13:38;14.60;99.90
23379;DHT22;11862;46.070;13.222;2022-11-21T12:16:11;14.40;99.90
23379;DHT22;11862;46.070;13.222;2022-11-21T12:19:16;14.40;99.90
23379;DHT22;11862;46.070;13.222;2022-11-21T12:21:52;14.30;99.90
23379;DHT22;11862;46.070;13.222;2022-11-21T12:24:32;14.30;99.90
23379;DHT22;11862;46.070;13.222;2022-11-21T12:27:27;14.20;99.90
23379;DHT22;11862;46.070;13.222;2022-11-21T12:55:13;13.60;99.90
23379;DHT22;11862;46.070;13.222;2022-11-21T13:05:32;13.20;99.90
23379;DHT22;11862;46.070;13.222;2022-11-21T13:08:07;13.20;99.90
23379;DHT22;11862;46.070;13.222;2022-11-21T13:10:34;12.90;99.90
23379;DHT22;11862;46.070;13.222;2022-11-21T13:13:18;12.90;99.90
23379;DHT22;11862;46.070;13.222;2022-11-21T13:18:25;12.80;99.90
23379;DHT22;11862;46.070;13.222;2022-11-21T13:20:54;12.90;99.90
23379;DHT22;11862;46.070;13.222;2022-11-21T13:23:36;12.90;99.90
23379;DHT22;11862;46.070;13.222;2022-11-21T13:29:06;13.00;99.90
23379;DHT22;11862;46.070;13.222;2022-11-21T13:31:33;12.90;99.90
23379;DHT22;11862;46.070;13.222;2022-11-21T13:34:03;12.90;99.90
23379;DHT22;11862;46.070;13.222;2022-11-21T13:44:39;12.80;99.90
23379;DHT22;11862;46.070;13.222;2022-11-21T13:52:59;12.60;99.90
23379;DHT22;11862;46.070;13.222;2022-11-21T13:58:20;12.40;99.90
23379;DHT22;11862;46.070;13.222;2022-11-21T14:03:44;12.40;99.90
23379;DHT22;11862;46.070;13.222;2022-11-21T14:09:26;12.40;99.90
23379;DHT22;11862;46.070;13.222;2022-11-21T14:12:02;12.40;99.90
23379;DHT22;11862;46.070;13.222;2022-11-21T14:14:33;12.30;99.90
23379;DHT22;11862;46.070;13.222;2022-11-21T14:19:52;12.20;99.90
23379;DHT22;11862;46.070;13.222;2022-11-21T14:22:38;12.10;99.90
23379;DHT22;11862;46.070;13.222;2022-11-21T14:25:07;12.00;99.90
23379;DHT22;11862;46.070;13.222;2022-11-21T14:27:37;11.90;99.90
23379;DHT22;11862;46.070;13.222;2022-11-21T14:30:04;11.90;99.90
23379;DHT22;11862;46.070;13.222;2022-11-21T14:32:31;11.90;99.90
23379;DHT22;11862;46.070;13.222;2022-11-21T14:35:27;11.90;99.90
23379;DHT22;11862;46.070;13.222;2022-11-21T14:37:53;11.90;99.90
23379;DHT22;11862;46.070;13.222;2022-11-21T14:40:22;11.80;99.90
23379;DHT22;11862;46.070;13.222;2022-11-21T14:42:52;11.90;99.90
23379;DHT22;11862;46.070;13.222;2022-11-21T14:45:20;11.90;99.90
23379;DHT22;11862;46.070;13.222;2022-11-21T14:47:52;11.80;99.90
23379;DHT22;11862;46.070;13.222;2022-11-21T14:50:34;11.70;99.90
23379;DHT22;11862;46.070;13.222;2022-11-21T14:53:01;11.70;99.90
23379;DHT22;11862;46.070;13.222;2022-11-21T14:55:32;11.60;99.90
23379;DHT22;11862;46.070;13.222;2022-11-21T14:58:01;11.50;99.90
23379;DHT22;11862;46.070;13.222;2022-11-21T15:00:29;11.50;99.90
23379;DHT22;11862;46.070;13.222;2022-11-21T15:02:57;11.50;99.90
23379;DHT22;11862;46.070;13.222;2022-11-21T15:05:31;11.40;99.90
23379;DHT22;11862;46.070;13.222;2022-11-21T15:08:01;11.20;99.90
23379;DHT22;11862;46.070;13.222;2022-11-21T15:10:32;11.10;99.90
23379;DHT22;11862;46.070;13.222;2022-11-21T15:13:06;11.00;99.90
23379;DHT22;11862;46.070;13.222;2022-11-21T15:15:48;10.90;99.90
23379;DHT22;11862;46.070;13.222;2022-11-21T15:20:51;10.90;99.90
23379;DHT22;11862;46.070;13.222;2022-11-21T15:25:59;10.70;99.90
23379;DHT22;11862;46.070;13.222;2022-11-21T15:28:27;10.60;99.90
23379;DHT22;11862;46.070;13.222;2022-11-21T15:31:13;10.50;99.90
23379;DHT22;11862;46.070;13.222;2022-11-21T15:33:55;10.40;99.90
23379;DHT22;11862;46.070;13.222;2022-11-21T15:36:22;10.40;99.90
23379;DHT22;11862;46.070;13.222;2022-11-21T15:39:01;10.40;99.90
23379;DHT22;11862;46.070;13.222;2022-11-21T15:41:33;10.50;99.90
23379;DHT22;11862;46.070;13.222;2022-11-21T15:46:33;10.40;99.90
23379;DHT22;11862;46.070;13.222;2022-11-21T15:49:02;10.20;99.90
23379;DHT22;11862;46.070;13.222;2022-11-21T15:54:26;10.20;99.90
23379;DHT22;11862;46.070;13.222;2022-11-21T15:56:52;10.10;99.90
23379;DHT22;11862;46.070;13.222;2022-11-21T15:59:19;10.00;99.90
23379;DHT22;11862;46.070;13.222;2022-11-21T16:01:46;9.90;99.90
23379;DHT22;11862;46.070;13.222;2022-11-21T16:04:15;9.80;99.90
23379;DHT22;11862;46.070;13.222;2022-11-21T16:06:41;9.70;99.90
23379;DHT22;11862;46.070;13.222;2022-11-21T16:09:10;9.80;99.90
23379;DHT22;11862;46.070;13.222;2022-11-21T16:11:36;9.80;99.90
23379;DHT22;11862;46.070;13.222;2022-11-21T16:14:05;9.90;99.90
23379;DHT22;11862;46.070;13.222;2022-11-21T16:16:39;9.80;99.90
23379;DHT22;11862;46.070;13.222;2022-11-21T16:19:05;9.80;99.90
23379;DHT22;11862;46.070;13.222;2022-11-21T16:21:32;9.70;99.90
23379;DHT22;11862;46.070;13.222;2022-11-21T16:23:57;9.60;99.90
23379;DHT22;11862;46.070;13.222;2022-11-21T16:26:24;9.70;99.90
23379;DHT22;11862;46.070;13.222;2022-11-21T16:28:56;9.60;99.90
23379;DHT22;11862;46.070;13.222;2022-11-21T16:31:27;9.50;99.90
23379;DHT22;11862;46.070;13.222;2022-11-21T16:33:53;9.40;99.90
23379;DHT22;11862;46.070;13.222;2022-11-21T16:36:25;9.40;99.90
23379;DHT22;11862;46.070;13.222;2022-11-21T16:38:51;9.50;99.90
23379;DHT22;11862;46.070;13.222;2022-11-21T16:41:18;9.70;99.90
23379;DHT22;11862;46.070;13.222;2022-11-21T16:43:48;9.80;99.90
23379;DHT22;11862;46.070;13.222;2022-11-21T16:46:20;9.70;99.90
23379;DHT22;11862;46.070;13.222;2022-11-21T16:48:46;9.60;99.90
23379;DHT22;11862;46.070;13.222;2022-11-21T16:51:19;9.60;99.90
23379;DHT22;11862;46.070;13.222;2022-11-21T16:53:47;9.50;99.90
23379;DHT22;11862;46.070;13.222;2022-11-21T16:56:14;9.50;99.90
23379;DHT22;11862;46.070;13.222;2022-11-21T16:58:41;9.70;99.90
23379;DHT22;11862;46.070;13.222;2022-11-21T17:01:18;9.80;99.90
23379;DHT22;11862;46.070;13.222;2022-11-21T17:03:45;9.90;99.90
23379;DHT22;11862;46.070;13.222;2022-11-21T17:06:13;9.90;99.90
23379;DHT22;11862;46.070;13.222;2022-11-21T17:08:39;9.90;99.90
23379;DHT22;11862;46.070;13.222;2022-11-21T17:11:20;9.90;99.90
23379;DHT22;11862;46.070;13.222;2022-11-21T17:13:48;9.80;99.90
23379;DHT22;11862;46.070;13.222;2022-11-21T17:16:16;9.80;99.90
23379;DHT22;11862;46.070;13.222;2022-11-21T17:18:43;9.70;99.90
23379;DHT22;11862;46.070;13.222;2022-11-21T17:21:12;9.70;99.90
23379;DHT22;11862;46.070;13.222;2022-11-21T17:23:40;9.80;99.90
23379;DHT22;11862;46.070;13.222;2022-11-21T17:26:09;9.80;99.90
23379;DHT22;11862;46.070;13.222;2022-11-21T17:28:35;9.70;99.90
23379;DHT22;11862;46.070;13.222;2022-11-21T17:31:05;9.70;99.90
23379;DHT22;11862;46.070;13.222;2022-11-21T17:33:32;9.60;99.90
23379;DHT22;11862;46.070;13.222;2022-11-21T17:36:00;9.60;99.90
23379;DHT22;11862;46.070;13.222;2022-11-21T17:38:26;9.50;99.90
23379;DHT22;11862;46.070;13.222;2022-11-21T17:41:03;9.50;99.90
23379;DHT22;11862;46.070;13.222;2022-11-21T17:43:31;9.50;99.90
23379;DHT22;11862;46.070;13.222;2022-11-21T17:46:02;9.50;99.90
23379;DHT22;11862;46.070;13.222;2022-11-21T17:48:28;9.50;99.90
23379;DHT22;11862;46.070;13.222;2022-11-21T17:51:00;9.50;99.90
23379;DHT22;11862;46.070;13.222;2022-11-21T17:53:32;9.60;99.90
23379;DHT22;11862;46.070;13.222;2022-11-21T17:55:59;9.60;99.90
23379;DHT22;11862;46.070;13.222;2022-11-21T17:58:28;9.50;99.90
23379;DHT22;11862;46.070;13.222;2022-11-21T18:00:56;9.50;99.90
23379;DHT22;11862;46.070;13.222;2022-11-21T18:03:22;9.40;99.90
23379;DHT22;11862;46.070;13.222;2022-11-21T18:05:48;9.40;99.90
23379;DHT22;11862;46.070;13.222;2022-11-21T18:08:13;9.20;99.90
23379;DHT22;11862;46.070;13.222;2022-11-21T18:10:39;9.10;99.90
23379;DHT22;11862;46.070;13.222;2022-11-21T18:13:05;9.00;99.90
23379;DHT22;11862;46.070;13.222;2022-11-21T18:15:35;9.00;99.90